createdAt,value
2022-12-04T00:00:19.280Z,30.03
2022-12-04T00:03:22.130Z,28.58
2022-12-04T00:06:25.786Z,31.02
2022-12-04T00:09:28.710Z,29.23
2022-12-04T00:12:31.499Z,26.33
2022-12-04T00:15:34.265Z,26.47
2022-12-04T00:18:37.449Z,27.90
2022-12-04T00:21:40.393Z,34.83
2022-12-04T00:24:43.263Z,35.47
2022-12-04T00:27:46.060Z,32.53
2022-12-04T00:30:49.270Z,34.33
2022-12-04T00:33:53.263Z,35.78
2022-12-04T00:36:56.150Z,40.45
2022-12-04T00:39:58.927Z,32.15
2022-12-04T00:43:02.181Z,31.23
2022-12-04T00:46:05.888Z,29.83
2022-12-04T00:49:09.159Z,28.52
2022-12-04T00:52:11.957Z,30.95
2022-12-04T00:55:15.049Z,31.83
2022-12-04T00:58:18.181Z,37.40
2022-12-04T01:01:21.870Z,34.40
2022-12-04T01:04:24.980Z,32.88
2022-12-04T01:07:27.892Z,28.38
2022-12-04T01:10:31.126Z,24.75
2022-12-04T01:13:34.359Z,33.13
2022-12-04T01:16:39.602Z,29.77
2022-12-04T01:19:42.766Z,33.58
2022-12-04T01:22:45.541Z,33.42
2022-12-04T01:25:58.248Z,32.92
2022-12-04T01:29:02.052Z,39.77
2022-12-04T01:32:05.107Z,34.13
2022-12-04T01:35:08.400Z,33.85
2022-12-04T01:38:11.469Z,34.90
2022-12-04T01:41:16.394Z,33.45
2022-12-04T01:44:25.150Z,34.47
2022-12-04T01:47:27.851Z,30.33
2022-12-04T01:50:31.384Z,27.48
2022-12-04T01:53:38.603Z,29.77
2022-12-04T01:56:52.395Z,27.88
2022-12-04T02:00:07.054Z,31.23
2022-12-04T02:03:10.108Z,28.77
2022-12-04T02:06:12.921Z,28.20
2022-12-04T02:09:17.031Z,25.92
2022-12-04T02:12:43.855Z,27.80
2022-12-04T02:15:58.809Z,27.83
2022-12-04T02:19:01.593Z,25.50
2022-12-04T02:22:20.051Z,24.83
2022-12-04T02:25:54.838Z,21.73
2022-12-04T02:29:05.337Z,18.08
2022-12-04T02:32:29.273Z,30.50
2022-12-04T02:35:40.388Z,23.13
2022-12-04T02:38:52.649Z,19.77
2022-12-04T02:42:02.786Z,17.17
2022-12-04T02:45:14.997Z,16.95
2022-12-04T02:48:20.977Z,21.30
2022-12-04T02:51:27.692Z,18.70
2022-12-04T02:54:40.662Z,19.70
2022-12-04T02:57:48.908Z,17.88
2022-12-04T03:00:55.100Z,24.02
2022-12-04T03:04:03.256Z,19.57
2022-12-04T03:07:13.435Z,18.17
2022-12-04T03:10:28.130Z,19.83
2022-12-04T03:13:37.232Z,23.20
2022-12-04T03:16:42.047Z,22.13
2022-12-04T03:19:50.865Z,18.77
2022-12-04T03:22:59.790Z,12.17
2022-12-04T03:26:02.575Z,25.63
2022-12-04T03:29:27.354Z,18.30
2022-12-04T03:33:06.282Z,22.65
2022-12-04T03:36:31.628Z,19.33
2022-12-04T03:39:53.131Z,18.00
2022-12-04T03:42:59.076Z,16.27
2022-12-04T03:46:22.582Z,15.27
2022-12-04T03:49:45.020Z,13.40
2022-12-04T03:53:09.076Z,15.03
2022-12-04T03:56:26.548Z,18.40
2022-12-04T03:59:51.125Z,17.90
2022-12-04T04:03:06.870Z,14.50
2022-12-04T04:06:14.297Z,13.30
2022-12-04T04:09:24.251Z,14.07
2022-12-04T04:12:33.178Z,13.83
2022-12-04T04:16:00.052Z,12.55
2022-12-04T04:19:22.636Z,15.73
2022-12-04T04:22:46.165Z,16.88
2022-12-04T04:25:51.667Z,14.93
2022-12-04T04:28:54.420Z,14.97
2022-12-04T04:32:04.555Z,16.33
2022-12-04T04:35:22.048Z,16.30
2022-12-04T04:38:45.705Z,16.75
2022-12-04T04:41:57.380Z,11.87
2022-12-04T04:45:14.094Z,13.83
2022-12-04T04:48:20.203Z,16.58
2022-12-04T04:51:23.703Z,12.07
2022-12-04T04:54:30.028Z,13.10
2022-12-04T04:57:38.300Z,17.27
2022-12-04T05:00:46.410Z,16.10
2022-12-04T05:03:49.167Z,19.15
2022-12-04T05:06:51.886Z,14.20
2022-12-04T05:09:55.110Z,13.18
2022-12-04T05:12:58.163Z,14.53
2022-12-04T05:16:04.408Z,14.07
2022-12-04T05:19:25.754Z,11.88
2022-12-04T05:22:33.808Z,15.65
2022-12-04T05:25:36.541Z,14.00
2022-12-04T05:28:41.238Z,11.50
2022-12-04T05:31:44.266Z,15.30
2022-12-04T05:34:55.103Z,15.73
2022-12-04T05:37:58.030Z,11.52
2022-12-04T05:41:02.708Z,12.07
2022-12-04T05:44:05.596Z,10.97
2022-12-04T05:47:08.522Z,8.30
2022-12-04T05:50:13.312Z,12.00
2022-12-04T05:53:16.192Z,11.90
2022-12-04T05:56:19.029Z,10.93
2022-12-04T05:59:22.078Z,10.03
2022-12-04T06:02:24.954Z,13.10
2022-12-04T06:05:27.804Z,13.90
2022-12-04T06:08:32.250Z,11.40
2022-12-04T06:11:37.462Z,10.77
2022-12-04T06:14:40.242Z,10.50
2022-12-04T06:17:42.978Z,11.73
2022-12-04T06:20:45.787Z,9.68
2022-12-04T06:23:48.966Z,9.70
2022-12-04T06:30:19.239Z,10.03
2022-12-04T06:33:22.019Z,9.53
2022-12-04T06:36:25.079Z,8.77
2022-12-04T06:39:28.214Z,9.77
2022-12-04T06:42:30.990Z,7.97
2022-12-04T06:45:33.900Z,11.33
2022-12-04T06:48:37.110Z,7.30
2022-12-04T06:51:41.085Z,6.10
2022-12-04T06:54:44.070Z,6.10
2022-12-04T06:57:46.847Z,7.72
2022-12-04T07:00:49.665Z,6.73
2022-12-04T07:03:52.954Z,8.63
2022-12-04T07:06:55.920Z,7.03
2022-12-04T07:09:58.789Z,6.63
2022-12-04T07:13:01.665Z,6.20
2022-12-04T07:16:07.017Z,5.90
2022-12-04T07:19:11.508Z,8.33
2022-12-04T07:22:15.089Z,7.78
2022-12-04T07:25:18.658Z,7.20
2022-12-04T07:28:21.445Z,7.47
2022-12-04T07:31:26.509Z,6.57
2022-12-04T07:34:29.572Z,5.70
2022-12-04T07:37:32.488Z,6.28
2022-12-04T07:40:37.673Z,5.68
2022-12-04T07:43:41.447Z,5.43
2022-12-04T07:46:44.214Z,7.13
2022-12-04T07:49:47.024Z,4.53
2022-12-04T07:52:49.959Z,6.28
2022-12-04T07:55:53.241Z,5.72
2022-12-04T07:58:56.188Z,5.72
2022-12-04T08:01:59.283Z,5.20
2022-12-04T08:05:02.412Z,4.63
2022-12-04T08:08:05.640Z,5.88
2022-12-04T08:11:11.198Z,4.30
2022-12-04T08:14:14.072Z,3.83
2022-12-04T08:17:17.411Z,4.75
2022-12-04T08:20:20.310Z,5.27
2022-12-04T08:23:23.113Z,5.00
2022-12-04T08:26:28.385Z,3.88
2022-12-04T08:29:31.134Z,7.38
2022-12-04T08:32:34.202Z,5.90
2022-12-04T08:35:36.952Z,6.90
2022-12-04T08:38:39.891Z,8.52
2022-12-04T08:41:42.662Z,5.25
2022-12-04T08:44:46.158Z,7.55
2022-12-04T08:47:52.468Z,4.53
2022-12-04T08:50:55.950Z,3.73
2022-12-04T08:54:01.323Z,4.68
2022-12-04T08:57:04.276Z,6.32
2022-12-04T09:00:07.827Z,6.75
2022-12-04T09:03:16.259Z,4.47
2022-12-04T09:06:20.382Z,4.67
2022-12-04T09:09:23.407Z,5.18
2022-12-04T09:12:26.446Z,5.15
2022-12-04T09:15:29.540Z,10.82
2022-12-04T09:18:33.681Z,9.75
2022-12-04T09:21:37.006Z,6.33
2022-12-04T09:24:41.248Z,7.63
2022-12-04T09:27:45.135Z,4.97
2022-12-04T09:31:05.472Z,8.02
2022-12-04T09:34:08.543Z,4.88
2022-12-04T09:37:11.531Z,7.40
2022-12-04T09:40:38.112Z,6.40
2022-12-04T09:43:50.723Z,5.88
2022-12-04T09:46:59.735Z,7.18
2022-12-04T09:50:12.620Z,6.53
2022-12-04T09:53:28.044Z,6.47
2022-12-04T09:56:32.370Z,6.35
2022-12-04T09:59:35.371Z,7.10
2022-12-04T10:02:41.950Z,5.85
2022-12-04T10:06:03.771Z,5.65
2022-12-04T10:09:31.277Z,6.80
2022-12-04T10:13:01.765Z,6.20
2022-12-04T10:16:15.116Z,4.85
2022-12-04T10:19:37.729Z,6.80
2022-12-04T10:22:56.650Z,5.30
2022-12-04T10:26:01.999Z,6.47
2022-12-04T10:29:12.448Z,7.32
2022-12-04T10:32:32.890Z,5.55
2022-12-04T10:35:37.998Z,6.68
2022-12-04T10:38:47.582Z,7.65
2022-12-04T10:42:01.908Z,6.47
2022-12-04T10:45:07.429Z,7.57
2022-12-04T10:48:41.973Z,6.45
2022-12-04T10:51:46.213Z,6.75
2022-12-04T10:54:55.279Z,8.73
2022-12-04T10:57:58.184Z,5.40
2022-12-04T11:01:05.341Z,6.78
2022-12-04T11:04:18.727Z,6.75
2022-12-04T11:07:25.528Z,6.70
2022-12-04T11:10:32.161Z,7.17
2022-12-04T11:13:35.221Z,8.47
2022-12-04T11:16:42.146Z,8.38
2022-12-04T11:19:45.553Z,9.40
2022-12-04T11:22:52.270Z,10.85
2022-12-04T11:26:03.745Z,7.60
2022-12-04T11:29:14.771Z,8.63
2022-12-04T11:32:25.443Z,11.02
2022-12-04T11:35:30.439Z,7.47
2022-12-04T11:38:35.733Z,9.23
2022-12-04T11:41:40.375Z,7.33
2022-12-04T11:45:13.499Z,9.77
2022-12-04T11:48:21.421Z,7.97
2022-12-04T11:51:49.299Z,7.55
2022-12-04T11:55:04.584Z,9.60
2022-12-04T11:58:38.610Z,8.70
2022-12-04T12:02:03.373Z,8.53
2022-12-04T12:05:12.401Z,8.18
2022-12-04T12:08:56.761Z,9.95
2022-12-04T12:12:08.501Z,9.63
2022-12-04T12:15:36.308Z,14.40
2022-12-04T12:19:12.802Z,16.93
2022-12-04T12:22:49.274Z,10.07
2022-12-04T12:26:21.682Z,10.68
2022-12-04T12:29:50.582Z,9.05
2022-12-04T12:33:19.205Z,9.57
2022-12-04T12:36:24.920Z,9.90
2022-12-04T12:40:01.365Z,11.05
2022-12-04T12:43:37.277Z,11.93
2022-12-04T12:46:49.194Z,7.88
2022-12-04T12:50:05.064Z,19.10
2022-12-04T12:53:22.738Z,15.70
2022-12-04T12:56:42.300Z,11.50
2022-12-04T12:59:58.564Z,16.50
2022-12-04T13:03:30.708Z,13.88
2022-12-04T13:06:40.136Z,12.30
2022-12-04T13:09:50.407Z,12.87
2022-12-04T13:13:00.060Z,9.48
2022-12-04T13:16:24.691Z,12.38
2022-12-04T13:19:43.591Z,11.85
2022-12-04T13:23:05.173Z,10.83
2022-12-04T13:26:22.852Z,9.40
2022-12-04T13:30:09.065Z,9.13
2022-12-04T13:33:38.161Z,10.77
2022-12-04T13:37:03.857Z,9.30
2022-12-04T13:40:28.465Z,8.97
2022-12-04T13:43:47.344Z,15.70
2022-12-04T13:47:02.305Z,14.77
2022-12-04T13:50:10.722Z,14.43
2022-12-04T13:53:37.817Z,11.52
2022-12-04T13:56:46.028Z,9.93
2022-12-04T13:59:49.521Z,12.27
2022-12-04T14:02:55.972Z,10.00
2022-12-04T14:06:05.250Z,11.15
2022-12-04T14:09:38.625Z,9.77
2022-12-04T14:12:49.538Z,12.50
2022-12-04T14:16:04.733Z,10.37
2022-12-04T14:19:09.085Z,14.63
2022-12-04T14:22:39.629Z,12.80
2022-12-04T14:25:42.902Z,13.60
2022-12-04T14:28:46.050Z,12.98
2022-12-04T14:31:50.061Z,13.50
2022-12-04T14:34:54.463Z,13.38
2022-12-04T14:38:02.167Z,19.63
2022-12-04T14:41:05.079Z,18.48
2022-12-04T14:44:22.452Z,13.23
2022-12-04T14:48:04.448Z,17.37
2022-12-04T14:51:22.579Z,14.23
2022-12-04T14:54:32.432Z,15.23
2022-12-04T14:57:52.763Z,22.90
2022-12-04T15:00:58.788Z,22.05
2022-12-04T15:04:24.577Z,14.13
2022-12-04T15:07:31.098Z,9.77
2022-12-04T15:10:53.750Z,12.43
2022-12-04T15:14:05.704Z,12.35
2022-12-04T15:17:11.384Z,12.80
2022-12-04T15:20:17.943Z,14.03
2022-12-04T15:23:44.918Z,15.38
2022-12-04T15:26:50.222Z,14.20
2022-12-04T15:29:56.557Z,14.35
2022-12-04T15:32:59.878Z,12.33
2022-12-04T15:36:08.456Z,15.67
2022-12-04T15:39:19.277Z,14.32
2022-12-04T15:42:22.291Z,17.02
2022-12-04T15:45:31.940Z,15.95
2022-12-04T15:48:34.797Z,16.37
2022-12-04T15:51:37.956Z,13.57
2022-12-04T15:55:08.236Z,15.60
2022-12-04T15:58:33.045Z,16.08
2022-12-04T16:01:40.443Z,16.25
2022-12-04T16:04:45.591Z,14.73
2022-12-04T16:07:51.897Z,20.40
2022-12-04T16:11:01.275Z,15.85
2022-12-04T16:14:18.548Z,16.33
2022-12-04T16:17:28.272Z,21.00
2022-12-04T16:20:31.569Z,18.37
2022-12-04T16:23:34.384Z,20.73
2022-12-04T16:26:37.506Z,20.08
2022-12-04T16:29:41.271Z,21.25
2022-12-04T16:32:44.254Z,16.15
2022-12-04T16:35:47.306Z,18.07
2022-12-04T16:38:50.681Z,16.77
2022-12-04T16:41:53.715Z,17.70
2022-12-04T16:44:58.315Z,16.33
2022-12-04T16:48:01.752Z,18.38
2022-12-04T16:51:04.670Z,20.00
2022-12-04T16:54:10.342Z,17.30
2022-12-04T16:57:13.319Z,14.45
2022-12-04T17:00:18.650Z,14.15
2022-12-04T17:03:31.204Z,16.58
2022-12-04T17:06:34.235Z,17.77
2022-12-04T17:09:37.298Z,18.20
2022-12-04T17:12:41.179Z,21.05
2022-12-04T17:15:44.507Z,29.13
2022-12-04T17:18:47.471Z,20.13
2022-12-04T17:21:50.554Z,16.33
2022-12-04T17:24:57.625Z,20.07
2022-12-04T17:28:01.062Z,22.23
2022-12-04T17:31:06.454Z,19.77
2022-12-04T17:34:09.406Z,16.25
2022-12-04T17:37:12.519Z,13.10
2022-12-04T17:40:16.807Z,13.03
2022-12-04T17:43:22.201Z,11.73
2022-12-04T17:46:25.734Z,14.30
2022-12-04T17:49:28.911Z,9.57
2022-12-04T17:52:31.974Z,12.27
2022-12-04T17:55:35.149Z,15.33
2022-12-04T17:58:38.769Z,14.18
2022-12-04T18:01:41.770Z,12.68
2022-12-04T18:04:45.803Z,15.27
2022-12-04T18:07:48.657Z,12.87
2022-12-04T18:10:51.869Z,11.17
2022-12-04T18:13:57.500Z,10.38
2022-12-04T18:17:01.515Z,11.27
2022-12-04T18:20:05.804Z,7.85
2022-12-04T18:23:09.192Z,10.43
2022-12-04T18:26:18.041Z,12.23
2022-12-04T18:29:24.788Z,12.60
2022-12-04T18:32:27.927Z,10.90
2022-12-04T18:35:30.932Z,12.93
2022-12-04T18:38:34.401Z,23.37
2022-12-04T18:41:38.170Z,11.40
2022-12-04T18:44:41.603Z,19.58
2022-12-04T18:47:44.618Z,12.95
2022-12-04T18:50:47.815Z,14.70
2022-12-04T18:53:55.472Z,13.47
2022-12-04T18:56:58.728Z,13.00
2022-12-04T19:00:02.275Z,14.80
2022-12-04T19:03:06.083Z,14.43
2022-12-04T19:06:12.538Z,16.17
2022-12-04T19:09:18.593Z,13.27
2022-12-04T19:12:21.784Z,13.83
2022-12-04T19:15:25.370Z,12.32
2022-12-04T19:18:29.982Z,22.65
2022-12-04T19:21:33.691Z,22.48
2022-12-04T19:24:36.783Z,18.93
2022-12-04T19:27:39.641Z,19.47
2022-12-04T19:30:42.677Z,24.67
2022-12-04T19:33:46.352Z,19.80
2022-12-04T19:36:50.275Z,19.98
2022-12-04T19:39:53.528Z,16.10
2022-12-04T19:43:02.496Z,18.23
2022-12-04T19:46:07.938Z,23.63
2022-12-04T19:49:12.919Z,23.80
2022-12-04T19:52:17.519Z,24.08
2022-12-04T19:55:21.060Z,16.07
2022-12-04T19:58:26.366Z,17.13
2022-12-04T20:01:32.425Z,14.60
2022-12-04T20:04:35.636Z,17.20
2022-12-04T20:07:39.277Z,12.73
2022-12-04T20:10:43.169Z,14.43
2022-12-04T20:13:49.071Z,17.13
2022-12-04T20:16:52.173Z,16.85
2022-12-04T20:19:56.706Z,19.50
2022-12-04T20:22:59.917Z,17.42
2022-12-04T20:26:06.659Z,22.13
2022-12-04T20:29:13.155Z,19.20
2022-12-04T20:32:16.165Z,19.70
2022-12-04T20:35:19.218Z,21.40
2022-12-04T20:38:23.769Z,20.85
2022-12-04T20:41:29.545Z,20.43
2022-12-04T20:44:32.555Z,26.97
2022-12-04T20:47:36.555Z,18.65
2022-12-04T20:50:41.473Z,17.83
2022-12-04T20:53:47.982Z,20.33
2022-12-04T20:56:53.226Z,19.80
2022-12-04T20:59:56.868Z,27.10
2022-12-04T21:03:00.187Z,27.73
2022-12-04T21:06:03.189Z,38.08
2022-12-04T21:09:11.114Z,29.20
2022-12-04T21:12:32.537Z,23.67
2022-12-04T21:16:05.265Z,22.87
2022-12-04T21:19:11.355Z,21.38
2022-12-04T21:22:17.049Z,24.05
2022-12-04T21:25:19.984Z,17.15
2022-12-04T21:28:22.734Z,20.20
2022-12-04T21:31:28.818Z,17.07
2022-12-04T21:34:32.017Z,17.58
2022-12-04T21:37:34.898Z,15.20
2022-12-04T21:40:42.300Z,15.95
2022-12-04T21:43:45.589Z,17.57
2022-12-04T21:46:49.620Z,17.40
2022-12-04T21:49:54.603Z,17.92
2022-12-04T21:52:57.440Z,14.82
2022-12-04T21:56:00.265Z,15.65
2022-12-04T21:59:03.708Z,15.93
2022-12-04T22:02:06.765Z,15.23
2022-12-04T22:05:09.619Z,15.93
2022-12-04T22:08:13.408Z,17.10
2022-12-04T22:11:17.379Z,17.13
2022-12-04T22:14:20.151Z,18.47
2022-12-04T22:17:22.882Z,16.00
2022-12-04T22:20:25.969Z,19.95
2022-12-04T22:23:28.768Z,15.95
2022-12-04T22:26:32.402Z,18.63
2022-12-04T22:29:49.933Z,17.53
2022-12-04T22:32:54.131Z,21.37
2022-12-04T22:36:05.639Z,18.88
2022-12-04T22:39:10.128Z,24.80
2022-12-04T22:42:13.516Z,22.75
2022-12-04T22:45:16.247Z,24.10
2022-12-04T22:48:18.986Z,21.40
2022-12-04T22:51:22.197Z,26.85
2022-12-04T22:54:24.923Z,24.35
2022-12-04T22:57:28.509Z,23.63
2022-12-04T23:00:31.218Z,27.93
2022-12-04T23:03:34.278Z,24.30
2022-12-04T23:06:37.185Z,25.92
2022-12-04T23:09:40.287Z,27.90
2022-12-04T23:12:43.017Z,25.33
2022-12-04T23:15:45.816Z,26.47
2022-12-04T23:18:49.636Z,29.70
2022-12-04T23:21:57.003Z,28.90
2022-12-04T23:25:00.225Z,28.83
2022-12-04T23:28:03.009Z,35.75
2022-12-04T23:31:06.185Z,33.73
2022-12-04T23:34:09.006Z,34.10
2022-12-04T23:37:11.960Z,29.38
2022-12-04T23:40:15.093Z,28.08
2022-12-04T23:43:18.243Z,31.48
2022-12-04T23:46:24.838Z,34.40
2022-12-04T23:49:27.813Z,29.47
2022-12-04T23:52:31.211Z,25.90
2022-12-04T23:55:34.694Z,38.42
2022-12-04T23:58:38.824Z,29.35
